createdAt,value
2018-12-31T00:00:11.305Z,9.28
2018-12-31T00:01:10.423Z,9.28
2018-12-31T00:02:10.422Z,9.26
2018-12-31T00:03:10.432Z,9.26
2018-12-31T00:04:10.452Z,9.26
2018-12-31T00:05:10.751Z,9.25
2018-12-31T00:06:10.232Z,9.23
2018-12-31T00:07:10.249Z,9.26
2018-12-31T00:08:10.272Z,9.29
2018-12-31T00:09:10.279Z,9.29
2018-12-31T00:10:10.558Z,9.28
2018-12-31T00:11:10.856Z,9.29
2018-12-31T00:12:10.885Z,9.18
2018-12-31T00:13:10.881Z,9.21
2018-12-31T00:14:10.378Z,9.28
2018-12-31T00:15:10.682Z,9.25
2018-12-31T00:16:10.435Z,9.29
2018-12-31T00:17:10.435Z,9.21
2018-12-31T00:18:10.446Z,9.29
2018-12-31T00:19:10.481Z,9.29
2018-12-31T00:20:11.030Z,9.26
2018-12-31T00:21:11.032Z,9.26
2018-12-31T00:22:10.778Z,9.28
2018-12-31T00:23:11.060Z,9.22
2018-12-31T00:24:10.821Z,9.29
2018-12-31T00:25:10.831Z,9.21
2018-12-31T00:26:10.612Z,9.25
2018-12-31T00:27:11.592Z,9.26
2018-12-31T00:28:10.913Z,9.21
2018-12-31T00:29:10.934Z,9.28
2018-12-31T00:30:10.948Z,9.28
2018-12-31T00:31:10.688Z,9.23
2018-12-31T00:32:11.229Z,9.29
2018-12-31T00:33:10.997Z,9.29
2018-12-31T00:34:11.289Z,9.28
2018-12-31T00:35:10.845Z,9.29
2018-12-31T00:36:10.769Z,9.31
2018-12-31T00:37:11.341Z,9.23
2018-12-31T00:38:11.076Z,9.23
2018-12-31T00:39:10.836Z,9.28
2018-12-31T00:40:11.115Z,9.26
2018-12-31T00:41:11.135Z,9.25
2018-12-31T00:42:10.878Z,9.29
2018-12-31T00:43:10.905Z,9.26
2018-12-31T00:44:10.923Z,9.29
2018-12-31T00:45:11.474Z,9.29
2018-12-31T00:46:11.506Z,9.19
2018-12-31T00:47:11.504Z,9.29
2018-12-31T00:48:11.534Z,9.26
2018-12-31T00:49:11.275Z,9.23
2018-12-31T00:50:11.548Z,9.28
2018-12-31T00:51:11.060Z,9.31
2018-12-31T00:52:11.326Z,9.29
2018-12-31T00:53:11.128Z,9.29
2018-12-31T00:54:11.385Z,9.26
2018-12-31T00:55:11.395Z,9.23
2018-12-31T00:56:11.408Z,9.31
2018-12-31T00:57:11.427Z,9.22
2018-12-31T00:58:11.442Z,9.26
2018-12-31T00:59:11.738Z,9.23
2018-12-31T01:00:11.485Z,9.29
2018-12-31T01:01:11.513Z,9.22
2018-12-31T01:02:11.261Z,9.25
2018-12-31T01:03:11.802Z,9.21
2018-12-31T01:04:11.643Z,9.31
2018-12-31T01:05:11.313Z,9.25
2018-12-31T01:06:11.593Z,9.25
2018-12-31T01:07:11.611Z,9.22
2018-12-31T01:08:11.911Z,9.29
2018-12-31T01:09:11.903Z,9.28
2018-12-31T01:10:11.678Z,9.29
2018-12-31T01:11:11.689Z,9.32
2018-12-31T01:12:11.962Z,9.28
2018-12-31T01:13:11.732Z,9.26
2018-12-31T01:14:11.491Z,9.29
2018-12-31T01:15:12.033Z,9.31
2018-12-31T01:16:11.527Z,9.29
2018-12-31T01:17:11.785Z,9.28
2018-12-31T01:18:11.812Z,9.23
2018-12-31T01:19:11.841Z,9.31
2018-12-31T01:20:11.834Z,9.34
2018-12-31T01:21:11.867Z,9.34
2018-12-31T01:22:11.883Z,9.28
2018-12-31T01:23:11.646Z,9.32
2018-12-31T01:24:11.932Z,9.26
2018-12-31T01:25:11.951Z,9.29
2018-12-31T01:26:11.947Z,9.31
2018-12-31T01:27:11.723Z,9.31
2018-12-31T01:28:12.015Z,9.34
2018-12-31T01:29:11.747Z,9.37
2018-12-31T01:30:12.295Z,9.29
2018-12-31T01:31:12.066Z,9.31
2018-12-31T01:32:12.078Z,9.39
2018-12-31T01:33:11.826Z,9.32
2018-12-31T01:34:12.117Z,9.34
2018-12-31T01:35:12.386Z,9.37
2018-12-31T01:36:12.417Z,9.34
2018-12-31T01:37:11.908Z,9.37
2018-12-31T01:38:12.272Z,9.43
2018-12-31T01:39:12.448Z,9.4
2018-12-31T01:40:11.972Z,9.39
2018-12-31T01:41:11.976Z,9.36
2018-12-31T01:42:11.988Z,9.32
2018-12-31T01:43:12.274Z,9.37
2018-12-31T01:44:12.539Z,9.37
2018-12-31T01:45:12.054Z,9.37
2018-12-31T01:46:12.573Z,9.39
2018-12-31T01:47:12.366Z,9.36
2018-12-31T01:48:12.364Z,9.36
2018-12-31T01:49:12.386Z,9.37
2018-12-31T01:50:12.679Z,9.36
2018-12-31T01:51:16.122Z,9.39
2018-12-31T01:52:12.704Z,9.31
2018-12-31T01:53:12.442Z,9.34
2018-12-31T01:54:12.217Z,9.36
2018-12-31T01:55:12.239Z,9.39
2018-12-31T01:56:12.504Z,9.37
2018-12-31T01:57:12.519Z,9.37
2018-12-31T01:58:12.559Z,9.4
2018-12-31T01:59:12.318Z,9.37
2018-12-31T02:00:12.590Z,9.36
2018-12-31T02:01:12.434Z,9.41
2018-12-31T02:02:12.368Z,9.37
2018-12-31T02:03:12.652Z,9.34
2018-12-31T02:04:12.403Z,9.36
2018-12-31T02:05:12.684Z,9.41
2018-12-31T02:06:12.702Z,9.34
2018-12-31T02:07:12.701Z,9.36
2018-12-31T02:08:12.741Z,9.41
2018-12-31T02:09:12.490Z,9.36
2018-12-31T02:10:12.518Z,9.37
2018-12-31T02:11:12.520Z,9.39
2018-12-31T02:12:12.795Z,9.32
2018-12-31T02:13:12.815Z,9.39
2018-12-31T02:14:13.086Z,9.37
2018-12-31T02:15:12.866Z,9.36
2018-12-31T02:16:12.863Z,9.37
2018-12-31T02:17:12.626Z,9.4
2018-12-31T02:18:12.982Z,9.36
2018-12-31T02:19:12.943Z,9.41
2018-12-31T02:20:12.947Z,9.32
2018-12-31T02:21:12.975Z,9.37
2018-12-31T02:22:12.995Z,9.34
2018-12-31T02:23:12.742Z,9.41
2018-12-31T02:24:12.760Z,9.46
2018-12-31T02:25:13.055Z,9.46
2018-12-31T02:26:13.694Z,9.43
2018-12-31T02:27:13.338Z,9.37
2018-12-31T02:28:12.850Z,9.47
2018-12-31T02:29:12.849Z,9.34
2018-12-31T02:30:13.142Z,9.39
2018-12-31T02:31:13.163Z,9.43
2018-12-31T02:32:14.450Z,9.43
2018-12-31T02:33:13.196Z,9.4
2018-12-31T02:34:13.208Z,9.37
2018-12-31T02:35:13.226Z,9.47
2018-12-31T02:36:13.055Z,9.39
2018-12-31T02:37:13.363Z,9.46
2018-12-31T02:38:13.564Z,9.31
2018-12-31T02:39:13.318Z,9.41
2018-12-31T02:40:13.322Z,9.34
2018-12-31T02:41:13.602Z,9.46
2018-12-31T02:42:13.352Z,9.37
2018-12-31T02:43:13.364Z,9.46
2018-12-31T02:44:13.132Z,9.41
2018-12-31T02:45:13.406Z,9.39
2018-12-31T02:46:13.428Z,9.43
2018-12-31T02:47:15.149Z,9.44
2018-12-31T02:48:13.209Z,9.41
2018-12-31T02:49:13.486Z,9.4
2018-12-31T02:50:13.510Z,9.44
2018-12-31T02:51:13.782Z,9.5
2018-12-31T02:52:13.793Z,9.44
2018-12-31T02:53:13.552Z,9.46
2018-12-31T02:54:13.324Z,9.36
2018-12-31T02:55:13.593Z,9.41
2018-12-31T02:56:13.607Z,9.36
2018-12-31T02:57:13.373Z,9.48
2018-12-31T02:58:13.407Z,9.43
2018-12-31T02:59:13.678Z,9.4
2018-12-31T03:00:13.934Z,9.47
2018-12-31T03:01:13.715Z,9.43
2018-12-31T03:02:13.743Z,9.41
2018-12-31T03:03:13.491Z,9.5
2018-12-31T03:04:13.502Z,9.37
2018-12-31T03:05:13.793Z,9.54
2018-12-31T03:06:14.064Z,9.48
2018-12-31T03:07:13.823Z,9.5
2018-12-31T03:08:13.849Z,9.44
2018-12-31T03:09:13.602Z,9.5
2018-12-31T03:10:13.895Z,9.47
2018-12-31T03:11:13.642Z,9.48
2018-12-31T03:12:14.153Z,9.41
2018-12-31T03:13:13.689Z,9.44
2018-12-31T03:14:13.943Z,9.43
2018-12-31T03:15:13.696Z,9.46
2018-12-31T03:16:13.990Z,9.54
2018-12-31T03:17:13.745Z,9.55
2018-12-31T03:18:13.758Z,9.5
2018-12-31T03:19:13.787Z,9.44
2018-12-31T03:20:13.797Z,9.41
2018-12-31T03:21:13.826Z,9.44
2018-12-31T03:22:14.098Z,9.41
2018-12-31T03:23:13.846Z,9.41
2018-12-31T03:24:14.390Z,9.43
2018-12-31T03:25:13.895Z,9.36
2018-12-31T03:26:13.964Z,9.51
2018-12-31T03:27:13.914Z,9.46
2018-12-31T03:28:14.479Z,9.5
2018-12-31T03:29:14.508Z,9.51
2018-12-31T03:30:14.519Z,9.47
2018-12-31T03:31:14.163Z,9.46
2018-12-31T03:32:14.281Z,9.5
2018-12-31T03:33:14.031Z,9.44
2018-12-31T03:34:14.326Z,9.44
2018-12-31T03:35:14.335Z,9.44
2018-12-31T03:36:14.625Z,9.37
2018-12-31T03:37:14.118Z,9.41
2018-12-31T03:38:14.393Z,9.47
2018-12-31T03:39:14.665Z,9.46
2018-12-31T03:40:14.432Z,9.43
2018-12-31T03:41:14.436Z,9.47
2018-12-31T03:42:14.212Z,9.34
2018-12-31T03:43:14.472Z,9.47
2018-12-31T03:44:15.806Z,9.5
2018-12-31T03:45:14.260Z,9.47
2018-12-31T03:46:14.550Z,9.51
2018-12-31T03:47:14.836Z,9.48
2018-12-31T03:48:14.849Z,9.48
2018-12-31T03:49:14.582Z,9.54
2018-12-31T03:50:14.359Z,9.46
2018-12-31T03:51:14.629Z,9.47
2018-12-31T03:52:14.379Z,9.46
2018-12-31T03:53:14.405Z,9.54
2018-12-31T03:54:14.421Z,9.48
2018-12-31T03:55:14.451Z,9.5
2018-12-31T03:56:14.471Z,9.5
2018-12-31T03:57:14.726Z,9.56
2018-12-31T03:58:14.757Z,9.44
2018-12-31T03:59:14.516Z,9.51
2018-12-31T04:00:15.051Z,9.48
2018-12-31T04:01:14.539Z,9.5
2018-12-31T04:02:14.843Z,9.47
2018-12-31T04:03:14.931Z,9.58
2018-12-31T04:04:14.885Z,9.55
2018-12-31T04:05:14.625Z,9.48
2018-12-31T04:06:14.913Z,9.55
2018-12-31T04:07:14.653Z,9.48
2018-12-31T04:08:15.207Z,9.51
2018-12-31T04:09:15.016Z,9.54
2018-12-31T04:10:15.252Z,9.55
2018-12-31T04:11:14.744Z,9.56
2018-12-31T04:12:15.016Z,9.54
2018-12-31T04:13:15.026Z,9.58
2018-12-31T04:14:15.040Z,9.58
2018-12-31T04:15:15.073Z,9.58
2018-12-31T04:16:15.092Z,9.51
2018-12-31T04:17:14.849Z,9.55
2018-12-31T04:18:15.136Z,9.56
2018-12-31T04:19:14.932Z,9.55
2018-12-31T04:20:15.407Z,9.51
2018-12-31T04:21:15.456Z,9.55
2018-12-31T04:22:15.449Z,9.54
2018-12-31T04:23:14.967Z,9.55
2018-12-31T04:24:15.230Z,9.51
2018-12-31T04:25:15.280Z,9.62
2018-12-31T04:26:15.007Z,9.55
2018-12-31T04:27:15.028Z,9.61
2018-12-31T04:28:15.319Z,9.54
2018-12-31T04:29:15.333Z,9.51
2018-12-31T04:30:15.652Z,9.59
2018-12-31T04:31:15.108Z,9.47
2018-12-31T04:32:15.387Z,9.54
2018-12-31T04:33:15.154Z,9.51
2018-12-31T04:34:15.695Z,9.5
2018-12-31T04:35:15.173Z,9.51
2018-12-31T04:36:15.443Z,9.55
2018-12-31T04:37:15.209Z,9.59
2018-12-31T04:38:15.493Z,9.58
2018-12-31T04:39:15.260Z,9.5
2018-12-31T04:40:15.542Z,9.55
2018-12-31T04:41:15.801Z,9.55
2018-12-31T04:42:15.830Z,9.56
2018-12-31T04:43:15.574Z,9.61
2018-12-31T04:44:15.614Z,9.58
2018-12-31T04:45:15.352Z,9.55
2018-12-31T04:46:15.639Z,9.54
2018-12-31T04:47:15.396Z,9.58
2018-12-31T04:48:15.674Z,9.58
2018-12-31T04:49:15.697Z,9.58
2018-12-31T04:50:15.702Z,9.56
2018-12-31T04:51:16.020Z,9.58
2018-12-31T04:52:15.757Z,9.58
2018-12-31T04:53:15.789Z,9.56
2018-12-31T04:54:16.038Z,9.54
2018-12-31T04:55:15.554Z,9.55
2018-12-31T04:56:15.559Z,9.58
2018-12-31T04:57:15.850Z,9.55
2018-12-31T04:58:22.877Z,9.5
2018-12-31T04:59:15.876Z,9.5
2018-12-31T05:00:15.892Z,9.56
2018-12-31T05:01:15.909Z,9.58
2018-12-31T05:02:15.944Z,9.68
2018-12-31T05:03:15.718Z,9.59
2018-12-31T05:04:15.717Z,9.58
2018-12-31T05:05:15.993Z,9.54
2018-12-31T05:06:16.266Z,9.5
2018-12-31T05:07:16.032Z,9.54
2018-12-31T05:08:16.044Z,9.66
2018-12-31T05:09:15.799Z,9.56
2018-12-31T05:10:16.330Z,9.65
2018-12-31T05:11:16.361Z,9.55
2018-12-31T05:12:15.865Z,9.58
2018-12-31T05:13:16.385Z,9.58
2018-12-31T05:14:16.162Z,9.55
2018-12-31T05:15:16.173Z,9.66
2018-12-31T05:16:16.473Z,9.62
2018-12-31T05:17:16.202Z,9.51
2018-12-31T05:18:16.218Z,9.65
2018-12-31T05:19:16.245Z,9.59
2018-12-31T05:20:16.533Z,9.51
2018-12-31T05:21:16.277Z,9.64
2018-12-31T05:22:16.299Z,9.66
2018-12-31T05:23:16.330Z,9.58
2018-12-31T05:24:16.607Z,9.64
2018-12-31T05:25:16.358Z,9.55
2018-12-31T05:26:16.665Z,9.54
2018-12-31T05:27:16.129Z,9.58
2018-12-31T05:28:16.154Z,9.64
2018-12-31T05:29:16.422Z,9.66
2018-12-31T05:30:16.181Z,9.64
2018-12-31T05:31:16.202Z,9.65
2018-12-31T05:32:16.273Z,9.56
2018-12-31T05:33:16.501Z,9.59
2018-12-31T05:34:16.272Z,9.55
2018-12-31T05:35:16.275Z,9.65
2018-12-31T05:36:16.576Z,9.61
2018-12-31T05:37:16.586Z,9.62
2018-12-31T05:38:16.599Z,9.72
2018-12-31T05:39:16.903Z,9.68
2018-12-31T05:40:16.629Z,9.64
2018-12-31T05:41:17.751Z,9.61
2018-12-31T05:42:16.654Z,9.68
2018-12-31T05:43:16.674Z,9.59
2018-12-31T05:44:16.956Z,9.66
2018-12-31T05:45:16.445Z,9.68
2018-12-31T05:46:17.009Z,9.61
2018-12-31T05:47:16.743Z,9.68
2018-12-31T05:48:17.052Z,9.61
2018-12-31T05:49:17.057Z,9.64
2018-12-31T05:50:16.557Z,9.66
2018-12-31T05:51:16.838Z,9.66
2018-12-31T05:52:16.832Z,9.61
2018-12-31T05:53:17.127Z,9.66
2018-12-31T05:54:16.887Z,9.73
2018-12-31T05:55:16.655Z,9.68
2018-12-31T05:56:17.175Z,9.72
2018-12-31T05:57:16.688Z,9.68
2018-12-31T05:58:16.702Z,9.73
2018-12-31T05:59:16.707Z,9.72
2018-12-31T06:00:17.001Z,9.72
2018-12-31T06:01:17.272Z,9.72
2018-12-31T06:02:17.030Z,9.69
2018-12-31T06:03:16.793Z,9.72
2018-12-31T06:04:17.331Z,9.73
2018-12-31T06:05:16.814Z,9.73
2018-12-31T06:06:17.371Z,9.64
2018-12-31T06:07:17.394Z,9.73
2018-12-31T06:08:17.141Z,9.72
2018-12-31T06:09:17.176Z,9.68
2018-12-31T06:10:17.163Z,9.72
2018-12-31T06:11:17.197Z,9.66
2018-12-31T06:12:17.226Z,9.69
2018-12-31T06:13:17.217Z,9.68
2018-12-31T06:14:17.267Z,9.65
2018-12-31T06:15:17.529Z,9.72
2018-12-31T06:16:17.280Z,9.68
2018-12-31T06:17:17.297Z,9.69
2018-12-31T06:18:17.073Z,9.68
2018-12-31T06:19:17.078Z,9.73
2018-12-31T06:20:17.090Z,9.72
2018-12-31T06:21:17.382Z,9.68
2018-12-31T06:22:17.389Z,9.69
2018-12-31T06:23:17.675Z,9.72
2018-12-31T06:24:17.433Z,9.69
2018-12-31T06:25:17.448Z,9.66
2018-12-31T06:26:17.724Z,9.74
2018-12-31T06:27:17.489Z,9.72
2018-12-31T06:28:17.497Z,9.72
2018-12-31T06:29:17.522Z,9.77
2018-12-31T06:30:17.541Z,9.73
2018-12-31T06:31:17.305Z,9.74
2018-12-31T06:32:17.570Z,9.68
2018-12-31T06:33:17.601Z,9.68
2018-12-31T06:34:17.608Z,9.73
2018-12-31T06:35:17.634Z,9.73
2018-12-31T06:36:17.935Z,9.68
2018-12-31T06:37:17.939Z,9.68
2018-12-31T06:38:17.424Z,9.66
2018-12-31T06:39:17.439Z,9.65
2018-12-31T06:40:17.456Z,9.69
2018-12-31T06:41:18.001Z,9.66
2018-12-31T06:42:18.033Z,9.69
2018-12-31T06:43:17.768Z,9.73
2018-12-31T06:44:18.070Z,9.73
2018-12-31T06:45:17.820Z,9.73
2018-12-31T06:46:18.093Z,9.72
2018-12-31T06:47:17.588Z,9.73
2018-12-31T06:48:17.610Z,9.74
2018-12-31T06:49:17.873Z,9.66
2018-12-31T06:50:17.907Z,9.79
2018-12-31T06:51:17.662Z,9.74
2018-12-31T06:52:18.214Z,9.69
2018-12-31T06:53:17.704Z,9.73
2018-12-31T06:54:17.993Z,9.77
2018-12-31T06:55:17.735Z,9.76
2018-12-31T06:56:18.018Z,9.76
2018-12-31T06:57:18.047Z,9.79
2018-12-31T06:58:17.780Z,9.73
2018-12-31T06:59:18.093Z,9.77
2018-12-31T07:00:18.361Z,9.76
2018-12-31T07:01:18.099Z,9.76
2018-12-31T07:02:18.116Z,9.79
2018-12-31T07:03:18.135Z,9.76
2018-12-31T07:04:18.159Z,9.76
2018-12-31T07:05:18.167Z,9.73
2018-12-31T07:06:18.181Z,9.79
2018-12-31T07:07:18.495Z,9.77
2018-12-31T07:08:18.235Z,9.77
2018-12-31T07:09:18.253Z,9.74
2018-12-31T07:10:18.533Z,9.76
2018-12-31T07:11:18.026Z,9.82
2018-12-31T07:12:18.301Z,9.8
2018-12-31T07:13:18.321Z,9.73
2018-12-31T07:14:18.088Z,9.76
2018-12-31T07:15:18.107Z,9.8
2018-12-31T07:16:18.388Z,9.73
2018-12-31T07:17:18.398Z,9.79
2018-12-31T07:18:18.433Z,9.76
2018-12-31T07:19:18.161Z,9.82
2018-12-31T07:20:18.710Z,9.74
2018-12-31T07:21:18.726Z,9.76
2018-12-31T07:22:18.483Z,9.77
2018-12-31T07:23:18.498Z,9.79
2018-12-31T07:24:18.783Z,9.76
2018-12-31T07:25:18.289Z,9.8
2018-12-31T07:26:18.562Z,9.84
2018-12-31T07:27:18.856Z,9.82
2018-12-31T07:28:18.338Z,9.74
2018-12-31T07:29:18.358Z,9.82
2018-12-31T07:30:18.635Z,9.79
2018-12-31T07:31:18.647Z,9.86
2018-12-31T07:32:18.416Z,9.79
2018-12-31T07:33:18.694Z,9.84
2018-12-31T07:34:18.967Z,9.91
2018-12-31T07:35:18.738Z,9.86
2018-12-31T07:36:18.740Z,9.87
2018-12-31T07:37:18.760Z,9.92
2018-12-31T07:38:18.784Z,9.91
2018-12-31T07:39:18.544Z,9.91
2018-12-31T07:40:18.818Z,9.89
2018-12-31T07:41:18.847Z,9.86
2018-12-31T07:42:18.588Z,9.87
2018-12-31T07:43:18.867Z,9.86
2018-12-31T07:44:18.629Z,9.86
2018-12-31T07:45:18.646Z,9.91
2018-12-31T07:46:19.185Z,9.87
2018-12-31T07:47:18.682Z,9.87
2018-12-31T07:48:18.973Z,9.84
2018-12-31T07:49:18.778Z,9.91
2018-12-31T07:50:19.144Z,9.91
2018-12-31T07:51:19.015Z,9.86
2018-12-31T07:52:18.790Z,9.86
2018-12-31T07:53:19.052Z,9.94
2018-12-31T07:54:19.327Z,9.89
2018-12-31T07:55:19.091Z,9.87
2018-12-31T07:56:19.117Z,9.84
2018-12-31T07:57:18.875Z,9.89
2018-12-31T07:58:19.404Z,9.87
2018-12-31T07:59:18.934Z,9.87
2018-12-31T08:00:18.927Z,9.91
2018-12-31T08:01:19.478Z,9.97
2018-12-31T08:02:19.491Z,9.92
2018-12-31T08:03:18.996Z,9.97
2018-12-31T08:04:20.451Z,9.98
2018-12-31T08:05:19.271Z,9.97
2018-12-31T08:06:19.298Z,9.95
2018-12-31T08:07:19.578Z,9.97
2018-12-31T08:08:19.080Z,9.84
2018-12-31T08:09:19.761Z,9.94
2018-12-31T08:10:19.375Z,9.94
2018-12-31T08:11:19.391Z,9.99
2018-12-31T08:12:19.407Z,9.95
2018-12-31T08:13:19.516Z,9.98
2018-12-31T08:14:19.195Z,9.92
2018-12-31T08:15:19.456Z,10.01
2018-12-31T08:16:19.743Z,10.01
2018-12-31T08:17:19.510Z,9.97
2018-12-31T08:18:19.533Z,10.01
2018-12-31T08:19:19.567Z,10.02
2018-12-31T08:20:19.563Z,9.91
2018-12-31T08:21:19.582Z,9.99
2018-12-31T08:22:19.589Z,10.02
2018-12-31T08:23:19.615Z,10.05
2018-12-31T08:24:19.626Z,10.01
2018-12-31T08:25:19.654Z,10.07
2018-12-31T08:26:19.938Z,10.07
2018-12-31T08:27:19.439Z,10.09
2018-12-31T08:28:19.707Z,10.07
2018-12-31T08:29:19.740Z,10.1
2018-12-31T08:30:21.157Z,10.05
2018-12-31T08:31:19.770Z,10.12
2018-12-31T08:32:19.514Z,10.1
2018-12-31T08:33:19.815Z,10.1
2018-12-31T08:34:19.563Z,10.05
2018-12-31T08:35:19.839Z,10.15
2018-12-31T08:36:19.597Z,10.15
2018-12-31T08:37:19.608Z,10.07
2018-12-31T08:38:19.634Z,10.15
2018-12-31T08:39:19.660Z,10.1
2018-12-31T08:40:19.661Z,10.12
2018-12-31T08:41:20.217Z,10.07
2018-12-31T08:42:19.959Z,10.02
2018-12-31T08:43:19.730Z,10.07
2018-12-31T08:44:19.741Z,10.09
2018-12-31T08:45:20.299Z,10.1
2018-12-31T08:46:20.046Z,10.07
2018-12-31T08:47:20.058Z,10.09
2018-12-31T08:48:19.819Z,10.15
2018-12-31T08:49:19.844Z,10.13
2018-12-31T08:50:19.853Z,10.15
2018-12-31T08:51:20.380Z,10.13
2018-12-31T08:52:19.891Z,10.15
2018-12-31T08:53:19.951Z,10.16
2018-12-31T08:54:19.930Z,10.12
2018-12-31T08:55:20.900Z,10.2
2018-12-31T08:56:20.496Z,10.17
2018-12-31T08:57:20.490Z,10.22
2018-12-31T08:58:20.270Z,10.1
2018-12-31T08:59:20.534Z,10.19
2018-12-31T09:00:20.302Z,10.12
2018-12-31T09:01:20.570Z,10.17
2018-12-31T09:02:20.072Z,10.17
2018-12-31T09:03:20.350Z,10.19
2018-12-31T09:04:20.373Z,10.3
2018-12-31T09:05:20.405Z,10.25
2018-12-31T09:06:20.262Z,10.34
2018-12-31T09:07:20.697Z,10.28
2018-12-31T09:08:20.435Z,10.23
2018-12-31T09:09:20.548Z,10.28
2018-12-31T09:10:20.490Z,10.3
2018-12-31T09:11:20.255Z,10.3
2018-12-31T09:12:20.254Z,10.3
2018-12-31T09:13:20.802Z,10.3
2018-12-31T09:14:20.542Z,10.3
2018-12-31T09:15:20.311Z,10.31
2018-12-31T09:16:20.348Z,10.33
2018-12-31T09:17:20.352Z,10.33
2018-12-31T09:18:20.371Z,10.25
2018-12-31T09:19:20.657Z,10.4
2018-12-31T09:20:20.419Z,10.3
2018-12-31T09:21:20.947Z,10.34
2018-12-31T09:22:20.442Z,10.37
2018-12-31T09:23:20.987Z,10.34
2018-12-31T09:24:21.005Z,10.35
2018-12-31T09:25:20.751Z,10.31
2018-12-31T09:26:20.779Z,10.33
2018-12-31T09:27:20.550Z,10.3
2018-12-31T09:28:21.080Z,10.34
2018-12-31T09:29:20.834Z,10.37
2018-12-31T09:30:20.845Z,10.28
2018-12-31T09:31:20.862Z,10.4
2018-12-31T09:32:20.906Z,10.26
2018-12-31T09:33:20.637Z,10.38
2018-12-31T09:34:20.919Z,10.41
2018-12-31T09:35:21.219Z,10.35
2018-12-31T09:36:20.962Z,10.38
2018-12-31T09:37:20.733Z,10.34
2018-12-31T09:38:20.745Z,10.38
2018-12-31T09:39:20.758Z,10.38
2018-12-31T09:40:21.303Z,10.44
2018-12-31T09:41:21.070Z,10.42
2018-12-31T09:42:21.349Z,10.44
2018-12-31T09:43:20.840Z,10.37
2018-12-31T09:44:21.365Z,10.44
2018-12-31T09:45:21.390Z,10.41
2018-12-31T09:46:21.403Z,10.42
2018-12-31T09:47:20.926Z,10.41
2018-12-31T09:48:21.199Z,10.46
2018-12-31T09:49:20.955Z,10.42
2018-12-31T09:50:21.212Z,10.42
2018-12-31T09:51:21.246Z,10.41
2018-12-31T09:52:21.276Z,10.41
2018-12-31T09:53:21.287Z,10.44
2018-12-31T09:54:21.372Z,10.51
2018-12-31T09:55:21.333Z,10.48
2018-12-31T09:56:21.327Z,10.41
2018-12-31T09:57:21.092Z,10.51
2018-12-31T09:58:21.367Z,10.53
2018-12-31T09:59:21.487Z,10.56
2018-12-31T10:00:21.414Z,10.54
2018-12-31T10:01:21.178Z,10.53
2018-12-31T10:02:21.467Z,10.53
2018-12-31T10:03:21.453Z,10.51
2018-12-31T10:04:21.760Z,10.49
2018-12-31T10:05:21.254Z,10.61
2018-12-31T10:06:21.629Z,10.63
2018-12-31T10:07:21.540Z,10.67
2018-12-31T10:08:21.583Z,10.64
2018-12-31T10:09:21.599Z,10.59
2018-12-31T10:10:21.619Z,10.64
2018-12-31T10:11:21.927Z,10.67
2018-12-31T10:12:21.651Z,10.59
2018-12-31T10:13:21.661Z,10.67
2018-12-31T10:14:21.924Z,10.57
2018-12-31T10:15:21.438Z,10.68
2018-12-31T10:16:21.724Z,10.75
2018-12-31T10:17:21.731Z,10.74
2018-12-31T10:18:21.992Z,10.72
2018-12-31T10:19:22.046Z,10.69
2018-12-31T10:20:21.524Z,10.74
2018-12-31T10:21:22.133Z,10.72
2018-12-31T10:22:21.560Z,10.78
2018-12-31T10:23:22.100Z,10.72
2018-12-31T10:24:21.862Z,10.78
2018-12-31T10:25:22.129Z,10.76
2018-12-31T10:26:21.897Z,10.76
2018-12-31T10:27:22.190Z,10.69
2018-12-31T10:28:21.683Z,10.82
2018-12-31T10:29:23.074Z,10.76
2018-12-31T10:30:21.738Z,10.81
2018-12-31T10:31:21.741Z,10.79
2018-12-31T10:32:21.759Z,10.78
2018-12-31T10:33:22.017Z,10.76
2018-12-31T10:34:22.290Z,10.78
2018-12-31T10:35:22.072Z,10.82
2018-12-31T10:36:22.071Z,10.79
2018-12-31T10:37:22.375Z,10.84
2018-12-31T10:38:22.116Z,10.75
2018-12-31T10:39:21.882Z,10.81
2018-12-31T10:40:21.889Z,10.78
2018-12-31T10:41:22.190Z,10.79
2018-12-31T10:42:22.209Z,10.74
2018-12-31T10:43:22.217Z,10.81
2018-12-31T10:44:21.971Z,10.76
2018-12-31T10:45:22.253Z,10.75
2018-12-31T10:46:22.012Z,10.76
2018-12-31T10:47:22.557Z,10.79
2018-12-31T10:48:22.047Z,10.86
2018-12-31T10:49:22.075Z,10.75
2018-12-31T10:50:22.089Z,10.82
2018-12-31T10:51:22.382Z,10.86
2018-12-31T10:52:22.133Z,10.9
2018-12-31T10:53:22.679Z,10.94
2018-12-31T10:54:22.677Z,10.89
2018-12-31T10:55:22.694Z,10.79
2018-12-31T10:56:22.455Z,10.81
2018-12-31T10:57:22.657Z,10.9
2018-12-31T10:58:22.230Z,10.92
2018-12-31T10:59:22.524Z,10.93
2018-12-31T11:00:22.797Z,10.96
2018-12-31T11:01:22.837Z,10.92
2018-12-31T11:02:23.309Z,10.94
2018-12-31T11:03:22.873Z,11.04
2018-12-31T11:04:22.622Z,10.97
2018-12-31T11:05:22.369Z,10.93
2018-12-31T11:06:22.911Z,10.93
2018-12-31T11:07:22.978Z,10.92
2018-12-31T11:08:22.433Z,10.92
2018-12-31T11:09:22.450Z,10.94
2018-12-31T11:10:23.883Z,10.94
2018-12-31T11:11:22.746Z,10.94
2018-12-31T11:12:23.024Z,10.99
2018-12-31T11:13:22.781Z,10.92
2018-12-31T11:14:23.058Z,10.96
2018-12-31T11:15:22.552Z,10.97
2018-12-31T11:16:22.848Z,11
2018-12-31T11:17:22.866Z,11
2018-12-31T11:18:22.866Z,11.05
2018-12-31T11:19:22.904Z,10.96
2018-12-31T11:20:22.712Z,10.94
2018-12-31T11:21:23.008Z,10.99
2018-12-31T11:22:22.693Z,10.96
2018-12-31T11:23:22.969Z,10.94
2018-12-31T11:24:22.995Z,11.02
2018-12-31T11:25:23.286Z,10.96
2018-12-31T11:26:22.767Z,11.02
2018-12-31T11:27:22.842Z,11.05
2018-12-31T11:28:22.806Z,10.99
2018-12-31T11:29:23.432Z,10.97
2018-12-31T11:30:22.876Z,10.96
2018-12-31T11:31:29.960Z,11
2018-12-31T11:32:23.415Z,11.05
2018-12-31T11:33:23.177Z,10.99
2018-12-31T11:34:23.172Z,10.97
2018-12-31T11:35:22.945Z,11.05
2018-12-31T11:36:22.964Z,10.99
2018-12-31T11:37:22.979Z,10.97
2018-12-31T11:38:23.330Z,11
2018-12-31T11:39:23.534Z,11.02
2018-12-31T11:40:23.563Z,10.97
2018-12-31T11:41:23.322Z,11
2018-12-31T11:42:23.344Z,11
2018-12-31T11:43:23.367Z,10.97
2018-12-31T11:44:23.360Z,11
2018-12-31T11:45:23.124Z,11.05
2018-12-31T11:46:23.419Z,10.97
2018-12-31T11:47:23.431Z,10.99
2018-12-31T11:48:23.451Z,11.02
2018-12-31T11:49:23.733Z,11.04
2018-12-31T11:50:23.218Z,10.97
2018-12-31T11:51:23.245Z,10.99
2018-12-31T11:52:23.259Z,10.97
2018-12-31T11:53:23.811Z,10.97
2018-12-31T11:54:23.297Z,10.94
2018-12-31T11:55:23.322Z,11.04
2018-12-31T11:56:23.844Z,10.99
2018-12-31T11:57:23.616Z,11.02
2018-12-31T11:58:23.644Z,10.99
2018-12-31T11:59:23.905Z,10.92
2018-12-31T12:00:23.676Z,11
2018-12-31T12:01:23.963Z,10.92
2018-12-31T12:02:28.241Z,10.97
2018-12-31T12:03:23.983Z,10.89
2018-12-31T12:04:23.480Z,10.96
2018-12-31T12:05:24.037Z,10.96
2018-12-31T12:06:23.528Z,11.02
2018-12-31T12:07:23.542Z,10.94
2018-12-31T12:08:23.850Z,10.96
2018-12-31T12:09:23.594Z,10.96
2018-12-31T12:10:24.135Z,10.92
2018-12-31T12:11:23.905Z,10.93
2018-12-31T12:12:23.923Z,10.86
2018-12-31T12:13:23.925Z,10.76
2018-12-31T12:14:24.132Z,10.82
2018-12-31T12:15:23.717Z,10.89
2018-12-31T12:16:24.002Z,10.99
2018-12-31T12:17:24.018Z,10.92
2018-12-31T12:18:23.760Z,10.94
2018-12-31T12:19:24.043Z,10.89
2018-12-31T12:20:24.327Z,10.97
2018-12-31T12:21:24.081Z,10.93
2018-12-31T12:22:24.383Z,11.05
2018-12-31T12:23:24.379Z,10.99
2018-12-31T12:24:24.158Z,11.04
2018-12-31T12:25:23.905Z,11.04
2018-12-31T12:26:23.911Z,10.99
2018-12-31T12:27:24.442Z,10.99
2018-12-31T12:28:24.476Z,11.04
2018-12-31T12:29:24.503Z,10.94
2018-12-31T12:30:24.263Z,10.97
2018-12-31T12:31:24.497Z,11.02
2018-12-31T12:32:24.556Z,10.94
2018-12-31T12:33:24.319Z,10.96
2018-12-31T12:34:24.349Z,10.99
2018-12-31T12:35:24.098Z,10.92
2018-12-31T12:36:24.374Z,11
2018-12-31T12:37:24.386Z,10.96
2018-12-31T12:38:24.415Z,10.9
2018-12-31T12:39:24.168Z,11.02
2018-12-31T12:40:25.094Z,11.08
2018-12-31T12:41:24.458Z,10.97
2018-12-31T12:42:24.470Z,10.96
2018-12-31T12:43:24.556Z,10.9
2018-12-31T12:44:24.779Z,10.96
2018-12-31T12:45:24.810Z,10.96
2018-12-31T12:46:24.812Z,10.93
2018-12-31T12:47:24.836Z,10.97
2018-12-31T12:48:24.589Z,10.84
2018-12-31T12:49:25.318Z,10.92
2018-12-31T12:50:24.622Z,10.94
2018-12-31T12:51:24.651Z,10.93
2018-12-31T12:52:24.678Z,10.96
2018-12-31T12:53:24.688Z,10.94
2018-12-31T12:54:24.457Z,10.89
2018-12-31T12:55:25.006Z,10.96
2018-12-31T12:56:24.493Z,10.89
2018-12-31T12:57:24.527Z,10.87
2018-12-31T12:58:25.111Z,10.92
2018-12-31T12:59:24.534Z,10.92
2018-12-31T13:00:24.567Z,10.92
2018-12-31T13:01:24.590Z,10.82
2018-12-31T13:02:24.594Z,10.92
2018-12-31T13:03:24.919Z,10.92
2018-12-31T13:04:24.901Z,10.87
2018-12-31T13:05:24.905Z,10.93
2018-12-31T13:06:25.019Z,10.86
2018-12-31T13:07:25.277Z,10.81
2018-12-31T13:08:24.971Z,10.81
2018-12-31T13:09:24.734Z,10.75
2018-12-31T13:10:25.275Z,10.86
2018-12-31T13:11:24.783Z,10.9